Hovedside
METAR-TAF:

METAR-TAF

Lufthavner :

Kuusamo lufthavn

Kuusamo, Finland

breddegrad: 65-58N, lengdegrad: 029-11E, høyde over havet: 262 m

Gjeldene værobservasjon

Denne rapporten ble laget for 54 minutter siden, klokken 09:20 UTC
Vind 10 kt fra Vest, skiftende mellom Vest-sørvest og Vest-nordvest
Temperatur 12°C
Luftfuktighet 94%
Trykk 999 hPa
Sikt 10 km eller mer
Overskyet i en høyde av 800 ft

METAR: EFKS 190920Z AUTO 27010KT 240V300 9999 OVC008 12/11 Q0999

Tid: 13:14 (10:14 UTC)

Varsel

Denne rapporten ble laget for 1 time og 38 minutter siden, klokken 08:36 UTC
Varsel gyldig fra 19. klokken 09 UTC til 19. klokken 12 UTC
Vind 8 kt fra Vest-sørvest
Sikt 10 km eller mer
Brutte skyer i en høyde av 800 ft
Blir
fra 19. klokken 09 UTC til 19. klokken 11 UTC
Brutte skyer i en høyde av 1200 ft

TAF: EFKS 190836Z 1909/1912 25008KT 9999 BKN008 BECMG 1909/1911 BKN012

Værobservasjoner og værvarsel for over 4000 flyplasser (METAR- og TAF-rapporter).

Tilgjengelige stasjoner er representert av de røde og gule prikkene på kartet.

Hold musepekeren over prikken for å se navnet på stasjonen.

Klikk så for å se værobservasjoner og -varsler.

For å forandre kartet kan du klikke på den grønne knappen med svart kryss for å zoome inn, på den grønne knappen med strek for å zoome ut, eller på de grønne pilene for å se tilstøtende kart.


METAR-TAF: